메인 페이지
METAR-TAF:

METAR-TAF

공항 :

뉴이슬라마바드 국제공항

이슬라마바드, 파키스탄

위도: 33-32-57N, 경도: 072-49-32E, 고도: 537m

현재 날씨관측

예보는 25분 전, 23:55시(UTC)에 발표되었습니다.
남서7kt
온도 10°C
습도 82%
기압 1017 hPa
시정: 3000m
고도 4000ft 상공 구름 조금
연무

METAR: OPIS 012355Z 23007KT 3000 HZ FEW040 10/07 Q1017 TEMPO 2000

시각: 05:20 (00:20 UTC)

예보

예보는 3 시간 15분 전, 21:05시(UTC)에 발표되었습니다.
예보 대상 시간: 02일 00시부터 03일 06시까지 (UTC)
6kt, 순간 최대 풍속 16kt
시정: 6000m
고도 4000ft 상공 구름 조금
확률 40% :
일시적
02일 00시부터 02일 04시까지 (UTC)
시정: 2500m
박무
전환 중
02일 17시부터 02일 21시까지 (UTC)
서남서8kt
시정: 4000m
연무
일시적
02일 21시부터 03일 03시까지 (UTC)
시정: 2500m
연무
전환 중
03일 03시부터 03일 06시까지 (UTC)
남서8kt
시정: 6000m

TAF: OPIS 012105Z 0200/0306 28006G16KT 6000 FEW040 PROB40 TEMPO 0200/0204 2500 BR BECMG 0217/0221 24008KT 4000 HZ NSC TEMPO 0221/0303 2500 HZ BECMG 0303/0306 22008KT 6000 NSC

4,000개 이상의 공항 관측 자료 및 예보 (METAR 및 TAF 보고).

지도상에서 검색 가능한 기상관측소가 노란 점과 빨간 점으로 표시되어 있습니다.

기상관측소 명을 보려면 표시 위로 마우스를 이동하세요.

날씨 관측과 예보를 보려면 클릭하세요.

지도 변경 : 확대하려면 엑스 표시가 있는 녹색 버튼, 축소하려면 빼기 표시가 있는 녹색 버튼, 다음 페이지의 지도를 보려면 녹색 화살표를 클릭하세요.


METAR-TAF: